Terminal Aerodrome Forecast
Issued by NWS

Home | Current Version | Previous Version | Text Only | Print | Product List | Glossary On
Versions: 1 2 3 4 5 6 7 8 9 10 11 12
000
FTUS45 KREV 231720
TAFTRK
TAF
KTRK 231720Z 2318/2418 VRB03KT P6SM SKC
     FM232000 24007KT P6SM SKC
     FM232200 27009G16KT P6SM SKC
     FM240300 VRB03KT P6SM SKC=

USA.gov is the U.S. government's official web portal to all federal, state and local government web resources and services.